臺北飛航情報區 - 掃描席(區管/近場)

METAR RCTP 161430Z 04013KT 9999 FEW010 BKN014 BKN050 18/15 Q1021 NOSIG RMK A3017(B)=

站台狀態:Online
最後更新:2018-12-16 22:30:01